Inyokern, CA (93527)

8:19 AM PST on March 05, 2015 (GMT -0800)
5 miles West of town | Change Station
CLOSE
Current Station
Personal Weather Station
Location: Ridgecrest, CA
Elevation: 2400 ft
Nearby Weather Stations

Elev 2400 ft 35.65 °N, 117.76 °W | Updated 4 minutes ago

Clear
Clear
45.2 °F
Feels Like 45 °F
N
2.0
Wind Variable Wind from SW
Gusts 4.0 mph

Today
High -- | Low -- °F
--% Chance of Precip.
Yesterday
High -- | Low -- °F
Precip. -- in
6:16 AM 5:50 PM
Full, 100% visible
Pressure 30.40 in
Visibility 10.0 miles
Clouds Clear
Windchill 45 °F
Dew Point 21 °F
Humidity 38%
Rainfall in
Snow Depth Not available.
UV 1 out of 12
Pollen 8.90 out of 12
Air Quality Not available.
Flu Activity Not available.
METAR KNID 051556Z 27003KT 10SM CLR 05/M04 A3037 RMK AO2 SLP293 T00501044 $

More Conditions Fewer Conditions

Pressure 30.40 in
Visibility 10.0 miles
Clouds Clear
Windchill 45 °F
Dew Point 21 °F
Humidity 38%
Rainfall in
Snow Depth Not available.
UV 1 out of 12
Pollen 8.90 out of 12
Air Quality Not available.
Flu Activity Not available.
METAR KNID 051556Z 27003KT 10SM CLR 05/M04 A3037 RMK AO2 SLP293 T00501044 $

More Conditions Fewer Conditions

10-Day Weather Forecast

Almanac

Astronomy

Mar. 05, 2015 Rise Set
Actual Time
Civil Twilight
Nautical Twilight
Astronomical Twilight
Moon
Length of Visible Light
Length of Day
Tomorrow will be .
, % of the Moon is Illuminated

Today's Extremes

State Highs State Lows

Community

WunderPhotos

Upload Photos

1,802,841 photos uploaded!

WunderBlogs® & News

Nearby

Air Quality

  Air Quality AQ Index Pollutant
Not available.

Snow Depth

Station Depth Elevation

Earthquake Activity

City Distance Mag. Time & Date
Minimum magnitude displayed is 2.5.

Coastal Water Temperatures

Place Temperature

Nearby Weather Stations